Belmont, West Virginia
Current Conditions -  °F | °C
As of 7:53 AM on Sunday 21 Dec 2014 (Local Time) from KPKB Reporting Station
Overcast Overcast  
Wind Chill: 31°   Ceiling: 4300
Heat Index: 31°   Visibility: 9mi
Dew Point: 24°   Wind: 0mph
Humidity: 76%   Direction: NA
Pressure: 30.34"   Gusts: NA
Location:  39.38°N, 81.26°W
Report Text: KPKB 211253Z 00000KT 9SM OVC043 M01/M04 A3034 RMK AO2 SLP283 T10061044
Loading
Personal Weather Stations






























Interactive Weather Map New forecast layout! Learn more

10-Day Weather Forecast

Advertisements
Track Severe Weather on mobile